METAR Data
IDs: Format: Raw Decoded Include TAF

Data at: 0313 UTC 25 Feb 2021

EFHK 250250Z 27009KT 9999 BKN005 03/03 Q1011 BECMG 2000 BR BKN002